Time;durP1;ratioP1;P1;durP2;ratioP2;P2;SDS_P1;SDS_P2;PMS_P1;PMS_P2;Temp;Humidity;BMP_temperature;BMP_pressure;BME280_temperature;BME280_humidity;BME280_pressure;Samples;Min_cycle;Max_cycle;Signal;HPM_P1;HPM_P2
2023/02/21 02:13:47;;;;;;;30.57;18.80;;;10.60;99.90;;;;;;4975887;28;20826;-69
2023/02/21 02:16:29;;;;;;;28.27;18.20;;;10.70;99.90;;;;;;4976112;28;20752;-69
2023/02/21 02:19:29;;;;;;;30.20;19.53;;;10.60;99.90;;;;;;4975128;28;20423;-69
2023/02/21 02:22:28;;;;;;;29.73;19.10;;;10.50;99.90;;;;;;4975586;28;20423;-68
2023/02/21 02:25:05;;;;;;;31.10;19.37;;;10.40;99.90;;;;;;4942691;28;20473;-69
2023/02/21 02:28:08;;;;;;;32.00;18.40;;;10.40;99.90;;;;;;4975874;28;20934;-69
2023/02/21 02:30:58;;;;;;;29.20;18.90;;;10.50;99.90;;;;;;4975872;28;20767;-68
2023/02/21 02:33:52;;;;;;;25.27;18.13;;;10.50;99.90;;;;;;4958313;28;20404;-69
2023/02/21 02:36:27;;;;;;;31.13;19.47;;;10.50;99.90;;;;;;4975804;28;20414;-68
2023/02/21 02:39:05;;;;;;;33.93;20.20;;;10.60;99.90;;;;;;4974978;28;20420;-68
2023/02/21 02:41:46;;;;;;;35.00;20.80;;;10.60;99.90;;;;;;4975947;28;20800;-69
2023/02/21 02:44:37;;;;;;;29.03;19.80;;;10.70;99.90;;;;;;4975427;28;20549;-68
2023/02/21 02:47:06;;;;;;;31.33;20.10;;;10.60;99.90;;;;;;4974849;28;20412;-69
2023/02/21 02:49:37;;;;;;;32.27;21.47;;;10.70;99.90;;;;;;4975636;28;20479;-69
2023/02/21 02:52:07;;;;;;;30.80;20.57;;;10.60;99.90;;;;;;4974794;28;20455;-69
2023/02/21 02:54:33;;;;;;;30.47;19.07;;;10.60;99.90;;;;;;4975261;28;20905;-68
2023/02/21 02:57:02;;;;;;;31.30;21.10;;;10.70;99.90;;;;;;4974368;28;20426;-69
2023/02/21 02:59:32;;;;;;;33.23;20.30;;;10.60;99.90;;;;;;4975146;28;20437;-68
2023/02/21 03:02:01;;;;;;;29.93;20.03;;;10.70;99.90;;;;;;4974551;28;20423;-69
2023/02/21 03:05:03;;;;;;;32.63;20.37;;;10.70;99.90;;;;;;4975017;28;20465;-69
2023/02/21 03:07:46;;;;;;;30.40;18.73;;;10.70;99.90;;;;;;4974485;28;20449;-68
2023/02/21 03:10:51;;;;;;;34.97;20.00;;;10.70;99.90;;;;;;4975031;28;20414;-69
2023/02/21 03:13:23;;;;;;;27.47;19.13;;;10.70;99.90;;;;;;4957938;28;20431;-69
2023/02/21 03:16:08;;;;;;;30.37;20.30;;;10.70;99.90;;;;;;4974321;28;20523;-69
2023/02/21 03:18:44;;;;;;;31.70;20.07;;;10.70;99.90;;;;;;4974916;28;20756;-68
2023/02/21 03:21:16;;;;;;;31.73;19.63;;;10.70;99.90;;;;;;4975095;28;20417;-69
2023/02/21 03:23:45;;;;;;;31.00;19.20;;;10.70;99.90;;;;;;4974771;28;20400;-68
2023/02/21 03:26:13;;;;;;;31.70;20.00;;;10.70;99.90;;;;;;4974696;28;20973;-68
2023/02/21 03:28:39;;;;;;;29.90;20.27;;;10.70;99.90;;;;;;4974707;28;20441;-68
2023/02/21 03:31:07;;;;;;;31.67;20.50;;;10.70;99.90;;;;;;4974013;28;20417;-69
2023/02/21 03:33:34;;;;;;;28.47;19.73;;;10.70;99.90;;;;;;4974628;28;20500;-68
2023/02/21 03:36:03;;;;;;;30.60;20.60;;;10.70;99.90;;;;;;4973941;28;20417;-68
2023/02/21 03:38:30;;;;;;;31.07;19.70;;;10.70;99.90;;;;;;4974495;28;20424;-69
2023/02/21 03:40:56;;;;;;;31.00;20.80;;;10.70;99.90;;;;;;4973956;28;20474;-69
2023/02/21 03:43:21;;;;;;;27.23;18.90;;;10.80;99.90;;;;;;4974576;28;20823;-69
2023/02/21 03:45:47;;;;;;;35.60;21.90;;;10.90;99.90;;;;;;4973701;28;20203;-69
2023/02/21 03:48:13;;;;;;;33.50;22.67;;;10.80;99.90;;;;;;4974305;28;20185;-69
2023/02/21 03:50:38;;;;;;;34.20;22.60;;;10.90;99.90;;;;;;4974325;28;20256;-69
2023/02/21 03:53:04;;;;;;;31.70;20.37;;;10.80;99.90;;;;;;4973708;28;20187;-69
2023/02/21 03:55:30;;;;;;;35.33;22.30;;;10.90;99.90;;;;;;4974230;28;20184;-69
2023/02/21 03:57:56;;;;;;;31.47;23.27;;;10.80;99.90;;;;;;4973636;28;20191;-69
2023/02/21 04:00:21;;;;;;;33.13;22.03;;;10.80;99.90;;;;;;4974134;28;20226;-68
2023/02/21 04:02:47;;;;;;;40.30;23.97;;;10.70;99.90;;;;;;4973516;28;20187;-68
2023/02/21 04:05:13;;;;;;;35.60;23.47;;;10.70;99.90;;;;;;4974098;28;20242;-69
2023/02/21 04:07:38;;;;;;;41.07;23.37;;;10.70;99.90;;;;;;4973735;28;20218;-69
2023/02/21 04:10:04;;;;;;;30.70;22.13;;;10.80;99.90;;;;;;4973489;28;20261;-69
2023/02/21 04:12:30;;;;;;;37.40;23.57;;;10.70;99.90;;;;;;4988550;28;20250;-68
2023/02/21 04:14:57;;;;;;;33.70;21.90;;;10.70;99.90;;;;;;4992741;28;20426;-69
2023/02/21 04:17:23;;;;;;;34.13;22.97;;;10.70;99.90;;;;;;4993036;28;20181;-69
2023/02/21 04:19:49;;;;;;;33.63;21.13;;;10.70;99.90;;;;;;4992687;28;20878;-70
2023/02/21 04:22:15;;;;;;;35.87;23.23;;;10.70;99.90;;;;;;4993307;28;20415;-68
2023/02/21 04:24:41;;;;;;;37.87;22.20;;;10.90;99.90;;;;;;4992917;28;20503;-68
2023/02/21 04:27:07;;;;;;;38.83;23.80;;;10.80;99.90;;;;;;4992697;28;20190;-69
2023/02/21 04:29:33;;;;;;;38.30;23.60;;;10.80;99.90;;;;;;4993206;28;20225;-69
2023/02/21 04:31:59;;;;;;;36.30;22.93;;;10.80;99.90;;;;;;4992620;28;20527;-68
2023/02/21 04:34:24;;;;;;;35.37;23.57;;;10.80;99.90;;;;;;4993109;28;20456;-68
2023/02/21 04:36:50;;;;;;;35.20;22.93;;;10.80;99.90;;;;;;4992510;28;20426;-69
2023/02/21 04:39:16;;;;;;;36.30;24.53;;;10.80;99.90;;;;;;4993377;28;20187;-69
2023/02/21 04:41:41;;;;;;;41.77;25.87;;;10.80;99.90;;;;;;4993148;28;20183;-68
2023/02/21 04:44:07;;;;;;;35.27;23.30;;;10.90;99.90;;;;;;4992479;28;20303;-69
2023/02/21 04:46:33;;;;;;;38.57;24.60;;;10.80;99.90;;;;;;4993058;28;20186;-68
2023/02/21 04:48:59;;;;;;;49.70;26.80;;;10.90;99.90;;;;;;4992457;28;20523;-69
2023/02/21 04:51:25;;;;;;;40.90;24.93;;;10.80;99.90;;;;;;4993001;28;20226;-68
2023/02/21 04:53:52;;;;;;;36.40;23.93;;;10.80;99.90;;;;;;4992397;28;20442;-69
2023/02/21 04:56:21;;;;;;;40.00;26.00;;;10.80;99.90;;;;;;4993083;28;20468;-69
2023/02/21 04:58:48;;;;;;;40.60;25.20;;;10.80;99.90;;;;;;4992988;28;20933;-69
2023/02/21 05:01:15;;;;;;;40.57;25.93;;;10.90;99.90;;;;;;4992927;28;20418;-69
2023/02/21 05:03:41;;;;;;;39.97;25.33;;;10.90;99.90;;;;;;4992970;28;20433;-69
2023/02/21 05:06:06;;;;;;;40.60;25.77;;;10.80;99.90;;;;;;4992241;28;20460;-68
2023/02/21 05:08:32;;;;;;;44.77;25.67;;;10.80;99.90;;;;;;4992843;28;20220;-68
2023/02/21 05:10:58;;;;;;;42.90;25.20;;;10.80;99.90;;;;;;4992043;28;20425;-68
2023/02/21 05:13:23;;;;;;;40.50;25.10;;;10.80;99.90;;;;;;4992970;28;20189;-69
2023/02/21 05:15:49;;;;;;;44.30;25.43;;;10.90;99.90;;;;;;4992262;28;20535;-68
2023/02/21 05:18:22;;;;;;;41.93;24.80;;;10.80;99.90;;;;;;4992526;28;20185;-69
2023/02/21 05:20:49;;;;;;;41.03;26.00;;;10.80;99.90;;;;;;4992778;28;20599;-68
2023/02/21 05:23:16;;;;;;;44.03;26.23;;;10.90;99.90;;;;;;4974923;28;20560;-69
2023/02/21 05:25:42;;;;;;;42.43;25.50;;;10.90;99.90;;;;;;4992658;28;20957;-69
2023/02/21 05:28:08;;;;;;;44.30;25.67;;;10.90;99.90;;;;;;4992133;28;20496;-69
2023/02/21 05:30:33;;;;;;;44.57;25.00;;;10.90;99.90;;;;;;4992824;28;20499;-68
2023/02/21 05:32:59;;;;;;;44.30;25.80;;;10.90;99.90;;;;;;4995623;28;20426;-69
2023/02/21 05:35:25;;;;;;;41.90;25.50;;;10.90;99.90;;;;;;4996269;28;20183;-69
2023/02/21 05:37:51;;;;;;;48.67;27.27;;;10.90;99.90;;;;;;4995553;28;20416;-69
2023/02/21 05:40:17;;;;;;;41.70;24.20;;;10.90;99.90;;;;;;4996385;28;20185;-69
2023/02/21 05:42:43;;;;;;;42.23;26.03;;;10.90;99.90;;;;;;4995747;28;20656;-68
2023/02/21 05:45:10;;;;;;;40.00;24.73;;;10.90;99.90;;;;;;4995332;28;20468;-68
2023/02/21 05:47:35;;;;;;;41.20;25.00;;;10.90;99.90;;;;;;4995923;28;20430;-69
2023/02/21 05:50:02;;;;;;;44.73;25.63;;;10.90;99.90;;;;;;4995351;28;20414;-68
2023/02/21 05:52:28;;;;;;;41.70;26.43;;;10.90;99.90;;;;;;4995902;28;20180;-69
2023/02/21 05:54:54;;;;;;;50.23;28.43;;;11.00;99.90;;;;;;4977810;28;20779;-69
2023/02/21 05:57:19;;;;;;;47.47;25.57;;;11.00;99.90;;;;;;4995775;28;20209;-68
2023/02/21 05:59:47;;;;;;;45.53;27.57;;;11.00;99.90;;;;;;4995857;28;20617;-68
2023/02/21 06:02:13;;;;;;;48.10;27.00;;;10.90;99.90;;;;;;4995084;28;20179;-69
2023/02/21 06:04:39;;;;;;;43.67;25.50;;;10.90;99.90;;;;;;4995823;28;20466;-68
2023/02/21 06:07:04;;;;;;;42.23;25.67;;;10.90;99.90;;;;;;4994728;28;20480;-68
2023/02/21 06:09:30;;;;;;;49.53;27.50;;;10.90;99.90;;;;;;4995383;28;20180;-69
2023/02/21 06:11:56;;;;;;;43.57;26.43;;;10.90;99.90;;;;;;4994871;28;20253;-69
2023/02/21 06:14:22;;;;;;;43.23;25.30;;;10.90;99.90;;;;;;4995488;28;20181;-69
2023/02/21 06:16:48;;;;;;;44.10;26.03;;;11.00;99.90;;;;;;4995736;28;20970;-69
2023/02/21 06:19:15;;;;;;;44.50;26.53;;;11.00;99.90;;;;;;4994815;28;20418;-69
2023/02/21 06:21:41;;;;;;;45.43;26.87;;;11.00;99.90;;;;;;4995354;28;20175;-69
2023/02/21 06:24:08;;;;;;;45.33;27.03;;;11.00;99.90;;;;;;4994634;28;20415;-69
2023/02/21 06:26:36;;;;;;;41.10;26.67;;;11.10;99.90;;;;;;4995595;28;20420;-68
2023/02/21 06:29:05;;;;;;;45.10;26.30;;;11.00;99.90;;;;;;4994938;28;20422;-69
2023/02/21 06:31:31;;;;;;;45.63;26.07;;;11.00;99.90;;;;;;4995255;28;20496;-69
2023/02/21 06:33:57;;;;;;;42.83;25.07;;;11.00;99.90;;;;;;4994567;28;20863;-69
2023/02/21 06:36:25;;;;;;;38.07;24.53;;;11.10;99.90;;;;;;4994941;28;20473;-68
2023/02/21 06:38:54;;;;;;;42.73;26.63;;;11.00;99.90;;;;;;4995024;28;20418;-69
2023/02/21 06:41:30;;;;;;;40.47;25.10;;;11.00;99.90;;;;;;4995059;28;20481;-68
2023/02/21 06:43:57;;;;;;;39.50;24.47;;;11.00;99.90;;;;;;4993426;28;20795;-69
2023/02/21 06:46:25;;;;;;;40.33;24.57;;;10.90;99.90;;;;;;4995102;28;20787;-69
2023/02/21 06:48:52;;;;;;;41.80;24.40;;;10.90;99.90;;;;;;4994822;28;20415;-68
2023/02/21 06:51:17;;;;;;;42.80;25.63;;;11.00;99.90;;;;;;4994076;28;20422;-69
2023/02/21 06:53:47;;;;;;;42.50;25.87;;;11.00;99.90;;;;;;4994836;28;20513;-69
2023/02/21 06:56:13;;;;;;;39.43;24.67;;;11.00;99.90;;;;;;4994125;28;20198;-69
2023/02/21 06:58:39;;;;;;;45.90;25.23;;;11.00;99.90;;;;;;4994388;28;20411;-69
2023/02/21 07:01:04;;;;;;;40.27;23.33;;;11.10;99.90;;;;;;4994015;28;20273;-68
2023/02/21 07:03:30;;;;;;;39.77;24.00;;;11.00;99.90;;;;;;4994494;28;20179;-69
2023/02/21 07:05:56;;;;;;;37.20;25.63;;;11.00;99.90;;;;;;4993897;28;20548;-69
2023/02/21 07:08:21;;;;;;;37.67;24.30;;;11.00;99.90;;;;;;4994449;28;20187;-69
2023/02/21 07:10:47;;;;;;;40.97;23.40;;;11.10;99.90;;;;;;4994090;28;20225;-69
2023/02/21 07:13:13;;;;;;;38.20;24.37;;;11.20;99.90;;;;;;4993846;28;20179;-69
2023/02/21 07:15:39;;;;;;;35.47;23.20;;;11.10;99.90;;;;;;4994345;28;20209;-69
2023/02/21 07:18:05;;;;;;;34.63;22.67;;;11.10;99.90;;;;;;4993726;28;20425;-69
2023/02/21 07:20:32;;;;;;;39.00;24.17;;;11.30;99.90;;;;;;4994230;28;20172;-68
2023/02/21 07:22:58;;;;;;;34.00;21.33;;;11.20;99.90;;;;;;4993602;28;20262;-69
2023/02/21 07:25:23;;;;;;;32.30;21.70;;;11.20;99.90;;;;;;4994082;28;20542;-69
2023/02/21 07:27:51;;;;;;;38.57;23.70;;;11.20;99.90;;;;;;4994122;28;20535;-68
2023/02/21 07:30:17;;;;;;;39.30;24.57;;;11.20;99.90;;;;;;4993480;28;20426;-69
2023/02/21 07:32:43;;;;;;;34.73;21.40;;;11.10;99.90;;;;;;4993933;28;20407;-69
2023/02/21 07:35:09;;;;;;;34.83;23.33;;;11.20;99.90;;;;;;4993423;28;20475;-68
2023/02/21 07:37:35;;;;;;;39.63;24.50;;;11.20;99.90;;;;;;4994077;28;20899;-68
2023/02/21 07:40:01;;;;;;;35.20;22.37;;;11.20;99.90;;;;;;4993257;28;20407;-69
2023/02/21 07:42:26;;;;;;;37.90;22.83;;;11.10;99.90;;;;;;4994084;28;20195;-68
2023/02/21 07:44:56;;;;;;;36.37;24.60;;;11.20;99.90;;;;;;4993787;28;20234;-69
2023/02/21 07:47:23;;;;;;;38.70;23.57;;;11.20;99.90;;;;;;4992895;28;20641;-69
2023/02/21 07:49:49;;;;;;;38.20;22.80;;;11.20;99.90;;;;;;4993727;28;20421;-68
2023/02/21 07:52:14;;;;;;;38.10;23.40;;;11.20;99.90;;;;;;4975833;28;20763;-68
2023/02/21 07:54:40;;;;;;;37.07;23.77;;;11.20;99.90;;;;;;4993384;28;20182;-69
2023/02/21 07:57:06;;;;;;;38.77;23.70;;;11.20;99.90;;;;;;4993085;28;20207;-68
2023/02/21 07:59:32;;;;;;;39.37;24.50;;;11.20;99.90;;;;;;4993610;28;20184;-68
2023/02/21 08:01:58;;;;;;;40.90;25.00;;;11.20;99.90;;;;;;4993558;28;20883;-68
2023/02/21 08:04:24;;;;;;;39.53;23.90;;;11.30;99.90;;;;;;4993377;28;20795;-68
2023/02/21 08:06:50;;;;;;;43.27;25.33;;;11.30;99.90;;;;;;4993588;28;20431;-68
2023/02/21 08:09:16;;;;;;;45.90;26.47;;;11.30;99.90;;;;;;4992842;28;20422;-68
2023/02/21 08:11:42;;;;;;;42.17;24.87;;;11.30;99.90;;;;;;4993058;28;20468;-68
2023/02/21 08:14:07;;;;;;;40.53;23.90;;;11.30;99.90;;;;;;4992817;28;20425;-68
2023/02/21 08:16:33;;;;;;;43.13;26.10;;;11.30;99.90;;;;;;4993381;28;20183;-68
2023/02/21 08:18:59;;;;;;;39.50;25.67;;;11.30;99.90;;;;;;4993362;28;20180;-68
2023/02/21 08:21:25;;;;;;;39.17;24.33;;;11.30;99.90;;;;;;4993270;28;20177;-68
2023/02/21 08:23:54;;;;;;;44.77;26.50;;;11.30;99.90;;;;;;4992217;28;20930;-68
2023/02/21 08:26:21;;;;;;;45.77;26.60;;;11.40;99.90;;;;;;4992362;28;20420;-68
2023/02/21 08:28:46;;;;;;;44.97;27.27;;;11.40;99.90;;;;;;4992907;28;20899;-68
2023/02/21 08:31:12;;;;;;;47.30;27.67;;;11.30;99.90;;;;;;4992341;28;20433;-69
2023/02/21 08:33:38;;;;;;;46.83;28.03;;;11.30;99.90;;;;;;4993186;28;20256;-68
2023/02/21 08:36:04;;;;;;;50.00;27.17;;;11.30;99.90;;;;;;4992543;28;20415;-68
2023/02/21 08:38:30;;;;;;;47.33;26.90;;;11.30;99.90;;;;;;4993181;28;20197;-68
2023/02/21 08:40:56;;;;;;;51.10;27.90;;;11.30;99.90;;;;;;4975433;28;20502;-68
2023/02/21 08:43:23;;;;;;;47.93;27.03;;;11.30;99.90;;;;;;4992486;28;20197;-68
2023/02/21 08:45:49;;;;;;;46.70;28.00;;;11.30;99.90;;;;;;4992992;28;20962;-69
2023/02/21 08:48:14;;;;;;;49.57;26.90;;;11.30;99.90;;;;;;4992663;28;20471;-68
2023/02/21 08:50:40;;;;;;;51.10;27.97;;;11.20;99.90;;;;;;4992742;28;20415;-68
2023/02/21 08:53:06;;;;;;;44.13;25.33;;;11.20;99.90;;;;;;4992588;28;20185;-68
2023/02/21 08:55:32;;;;;;;50.87;27.83;;;11.20;99.90;;;;;;4993072;28;20617;-68
2023/02/21 08:57:57;;;;;;;53.37;28.50;;;11.10;99.90;;;;;;4993025;28;20179;-68
2023/02/21 09:00:27;;;;;;;47.90;26.60;;;11.10;99.90;;;;;;4992070;28;20182;-68
2023/02/21 09:02:53;;;;;;;47.77;26.70;;;11.10;99.90;;;;;;4993206;28;20225;-68
2023/02/21 09:05:23;;;;;;;51.80;25.93;;;11.20;99.90;;;;;;4992417;28;20488;-68
2023/02/21 09:07:50;;;;;;;53.67;27.97;;;11.20;99.90;;;;;;4996647;28;20421;-68
2023/02/21 09:10:17;;;;;;;50.50;27.97;;;11.20;99.90;;;;;;4996058;28;20757;-68
2023/02/21 09:12:42;;;;;;;48.43;26.40;;;11.10;99.90;;;;;;4979132;28;20460;-68
2023/02/21 09:15:08;;;;;;;52.03;28.17;;;11.10;99.90;;;;;;4995677;28;20433;-68
2023/02/21 09:17:34;;;;;;;58.97;28.67;;;11.20;99.90;;;;;;4996666;28;20176;-68
2023/02/21 09:20:05;;;;;;;51.23;26.43;;;11.20;99.90;;;;;;4996526;28;20175;-68
2023/02/21 09:22:32;;;;;;;50.13;26.53;;;11.20;99.90;;;;;;4996569;28;20763;-68
2023/02/21 09:24:59;;;;;;;46.47;26.17;;;11.10;99.90;;;;;;4996386;28;20455;-68
2023/02/21 09:27:35;;;;;;;39.63;23.20;;;11.10;99.90;;;;;;4995795;28;20429;-68
2023/02/21 09:30:10;;;;;;;50.00;25.00;;;11.10;99.90;;;;;;4978954;28;20429;-68
2023/02/21 09:32:37;;;;;;;41.40;23.87;;;11.10;99.90;;;;;;4996720;28;20877;-68
2023/02/21 09:35:04;;;;;;;44.03;24.93;;;11.10;99.90;;;;;;4996250;28;20425;-68
2023/02/21 09:37:31;;;;;;;54.63;25.50;;;11.10;99.90;;;;;;4996148;28;20422;-68
2023/02/21 09:39:57;;;;;;;42.63;24.23;;;11.10;99.90;;;;;;4995998;28;20469;-68
2023/02/21 09:42:28;;;;;;;45.60;23.67;;;11.10;99.90;;;;;;4995355;28;20485;-68
2023/02/21 09:44:56;;;;;;;37.70;22.90;;;11.10;99.90;;;;;;4995694;28;20820;-68
2023/02/21 09:47:28;;;;;;;43.00;22.27;;;11.20;99.90;;;;;;4995264;28;20429;-68
2023/02/21 09:50:03;;;;;;;33.27;20.50;;;11.10;99.90;;;;;;4995993;28;20391;-68
2023/02/21 09:52:35;;;;;;;32.47;20.13;;;11.10;99.90;;;;;;4977885;28;20467;-68
2023/02/21 09:55:27;;;;;;;33.63;18.40;;;11.20;99.90;;;;;;4995748;28;20437;-68
2023/02/21 09:57:53;;;;;;;32.23;19.93;;;11.10;99.90;;;;;;4995775;28;20408;-68
2023/02/21 10:00:34;;;;;;;29.37;19.30;;;11.10;99.90;;;;;;4995076;28;20416;-68
2023/02/21 10:03:26;;;;;;;25.47;17.00;;;11.10;99.90;;;;;;4995587;28;20936;-68
2023/02/21 10:06:34;;;;;;;27.07;16.00;;;11.10;99.90;;;;;;4981102;28;20918;-68
2023/02/21 10:09:31;;;;;;;26.43;17.03;;;11.10;99.90;;;;;;4995713;28;20883;-68
2023/02/21 10:12:18;;;;;;;23.40;15.40;;;11.10;99.90;;;;;;4990441;28;20975;-68
2023/02/21 10:15:12;;;;;;;26.03;16.53;;;11.10;99.90;;;;;;4995427;28;20514;-68
2023/02/21 10:17:57;;;;;;;26.73;16.00;;;11.00;99.90;;;;;;4995439;28;20438;-68
2023/02/21 10:20:38;;;;;;;25.53;16.57;;;11.10;99.90;;;;;;4994860;28;20410;-68
2023/02/21 10:23:17;;;;;;;22.00;15.00;;;11.10;99.90;;;;;;4995218;28;20399;-68
2023/02/21 10:25:45;;;;;;;23.47;15.67;;;11.10;99.90;;;;;;4995452;28;20445;-68
2023/02/21 10:28:21;;;;;;;24.67;16.37;;;11.10;99.90;;;;;;4994620;28;20788;-68
2023/02/21 10:30:49;;;;;;;21.17;15.60;;;11.20;99.90;;;;;;4995296;28;20437;-68
2023/02/21 10:33:15;;;;;;;26.73;16.90;;;11.10;99.90;;;;;;4994370;28;20914;-68
2023/02/21 10:35:41;;;;;;;23.50;15.60;;;11.20;99.90;;;;;;4977667;28;20437;-68
2023/02/21 10:38:15;;;;;;;26.67;17.07;;;11.20;99.90;;;;;;4995055;28;20480;-68
2023/02/21 10:40:47;;;;;;;25.87;16.97;;;11.20;99.90;;;;;;4995082;28;20172;-68
2023/02/21 10:43:20;;;;;;;26.23;16.07;;;11.30;99.90;;;;;;4994468;28;20415;-68
2023/02/21 10:46:03;;;;;;;24.30;15.20;;;11.30;99.90;;;;;;4994623;28;20540;-68
2023/02/21 10:48:37;;;;;;;23.40;15.50;;;11.30;99.90;;;;;;4977769;28;20431;-68
2023/02/21 10:51:09;;;;;;;24.73;16.70;;;11.30;99.90;;;;;;4994736;28;20844;-68
2023/02/21 10:53:37;;;;;;;24.03;15.60;;;11.40;99.90;;;;;;4994725;28;20422;-68
2023/02/21 10:56:18;;;;;;;20.87;14.40;;;11.30;99.90;;;;;;4994763;28;20466;-68
2023/02/21 10:58:56;;;;;;;23.67;14.67;;;11.40;99.90;;;;;;4995026;28;20414;-68
2023/02/21 11:01:25;;;;;;;26.73;16.10;;;11.50;99.90;;;;;;4993789;28;20430;-68
2023/02/21 11:03:54;;;;;;;21.30;15.57;;;11.40;99.90;;;;;;4994850;28;20506;-68
2023/02/21 11:06:27;;;;;;;25.87;16.13;;;11.40;99.90;;;;;;4992607;28;20469;-68
2023/02/21 11:08:53;;;;;;;22.67;16.00;;;11.40;99.90;;;;;;4994600;28;20898;-68
2023/02/21 11:11:40;;;;;;;23.17;15.60;;;11.40;99.90;;;;;;4993784;28;20451;-68
2023/02/21 11:14:17;;;;;;;20.20;14.93;;;11.40;99.90;;;;;;4994451;28;20191;-68
2023/02/21 11:16:43;;;;;;;22.37;14.40;;;11.50;99.90;;;;;;4994480;28;20414;-68
2023/02/21 11:19:12;;;;;;;20.30;15.17;;;11.50;99.90;;;;;;4976962;28;20419;-68
2023/02/21 11:21:40;;;;;;;19.30;14.00;;;11.50;99.90;;;;;;4994218;28;20421;-68
2023/02/21 11:24:07;;;;;;;19.77;13.90;;;11.50;99.90;;;;;;4994133;28;20411;-68
2023/02/21 11:26:46;;;;;;;19.70;13.80;;;11.50;99.90;;;;;;4992346;28;20507;-68
2023/02/21 11:29:20;;;;;;;20.40;14.70;;;11.50;99.90;;;;;;4992721;28;20422;-68
2023/02/21 11:31:45;;;;;;;18.43;13.50;;;11.60;99.90;;;;;;4993772;28;20411;-68
2023/02/21 11:34:13;;;;;;;20.23;13.93;;;11.50;99.90;;;;;;4993449;28;20470;-68
2023/02/21 11:36:42;;;;;;;18.80;14.47;;;11.60;99.90;;;;;;4993693;28;20219;-68
2023/02/21 11:39:30;;;;;;;18.47;13.90;;;11.70;99.90;;;;;;4993956;28;20450;-68
2023/02/21 11:41:59;;;;;;;19.20;13.10;;;11.60;99.90;;;;;;4993622;28;20414;-68
2023/02/21 11:44:35;;;;;;;17.90;13.97;;;11.60;99.90;;;;;;4993487;28;20516;-68
2023/02/21 11:47:20;;;;;;;21.70;13.87;;;11.70;99.90;;;;;;4993854;28;20405;-68
2023/02/21 11:50:19;;;;;;;18.30;13.60;;;11.70;99.90;;;;;;4993555;28;20410;-68
2023/02/21 11:53:00;;;;;;;21.10;14.17;;;11.70;99.90;;;;;;4993769;28;20416;-68
2023/02/21 11:55:27;;;;;;;18.20;13.07;;;11.70;99.90;;;;;;4992870;28;20943;-68
2023/02/21 11:58:24;;;;;;;19.37;14.60;;;11.80;99.90;;;;;;4993376;28;20408;-68
2023/02/21 12:01:07;;;;;;;26.53;16.60;;;11.90;99.90;;;;;;4993950;28;20410;-68
2023/02/21 12:03:39;;;;;;;21.67;15.63;;;11.90;99.90;;;;;;4992735;28;20397;-68
2023/02/21 12:06:38;;;;;;;23.90;15.50;;;12.00;99.90;;;;;;4993594;28;20592;-68
2023/02/21 12:09:23;;;;;;;22.10;14.60;;;12.00;99.90;;;;;;4993538;28;20420;-68
2023/02/21 12:12:01;;;;;;;17.83;13.40;;;12.10;99.90;;;;;;4975925;28;20467;-68
2023/02/21 12:15:02;;;;;;;17.90;13.00;;;12.10;99.90;;;;;;4993157;28;20413;-68
2023/02/21 12:17:28;;;;;;;19.30;13.20;;;12.20;99.90;;;;;;4992883;28;20807;-68
2023/02/21 12:20:23;;;;;;;16.37;11.70;;;12.20;99.90;;;;;;4993364;28;20413;-68
2023/02/21 12:23:25;;;;;;;16.07;12.97;;;12.30;99.90;;;;;;4993366;28;20177;-68
2023/02/21 12:26:21;;;;;;;18.17;13.40;;;12.30;99.90;;;;;;4993048;28;20968;-68
2023/02/21 12:29:07;;;;;;;18.27;14.23;;;12.30;99.90;;;;;;4907236;28;20465;-68
2023/02/21 12:31:56;;;;;;;15.37;13.10;;;12.30;99.90;;;;;;4992691;28;20413;-68
2023/02/21 12:34:40;;;;;;;17.93;13.80;;;12.30;99.90;;;;;;4974403;28;20902;-68
2023/02/21 12:37:17;;;;;;;22.47;14.27;;;12.30;99.90;;;;;;4993239;28;20429;-68
2023/02/21 12:40:19;;;;;;;18.83;13.97;;;12.30;99.90;;;;;;4993122;28;20423;-68
2023/02/21 12:42:47;;;;;;;20.97;14.27;;;12.30;99.90;;;;;;4946090;28;20439;-68
2023/02/21 12:45:22;;;;;;;24.40;16.57;;;12.40;99.90;;;;;;4996952;28;20466;-68
2023/02/21 12:47:55;;;;;;;23.43;15.93;;;12.30;99.90;;;;;;4997058;28;20425;-68
2023/02/21 12:50:26;;;;;;;23.53;16.53;;;12.30;99.90;;;;;;4996509;28;20416;-68
2023/02/21 12:53:19;;;;;;;22.00;14.90;;;12.20;99.90;;;;;;4997116;28;20402;-68
2023/02/21 12:56:07;;;;;;;20.23;14.60;;;12.30;99.90;;;;;;4997044;28;20926;-68
2023/02/21 12:58:39;;;;;;;22.30;15.37;;;12.30;99.90;;;;;;4979182;28;20992;-68
2023/02/21 13:01:24;;;;;;;21.60;14.30;;;12.40;99.90;;;;;;4997075;28;20401;-68
2023/02/21 13:04:12;;;;;;;22.53;15.33;;;12.40;99.90;;;;;;4996991;28;20399;-68
2023/02/21 13:07:02;;;;;;;21.80;16.10;;;12.40;99.90;;;;;;4978769;28;20637;-68
2023/02/21 13:09:39;;;;;;;23.07;15.07;;;12.40;99.90;;;;;;4996195;28;20757;-68
2023/02/21 13:12:18;;;;;;;23.70;15.97;;;12.40;99.90;;;;;;4996255;28;20520;-68
2023/02/21 13:14:57;;;;;;;23.97;15.77;;;12.50;99.90;;;;;;4996898;28;20462;-68
2023/02/21 13:17:24;;;;;;;20.13;14.67;;;12.50;99.90;;;;;;4995344;28;20928;-68
2023/02/21 13:20:06;;;;;;;21.47;15.07;;;12.50;99.90;;;;;;4996655;28;20466;-68
2023/02/21 13:26:27;;;;;;;23.77;16.63;;;12.50;99.90;;;;;;4996413;28;20566;-68
2023/02/21 13:28:54;;;;;;;23.07;16.60;;;12.50;99.90;;;;;;4996501;28;20426;-68
2023/02/21 13:31:36;;;;;;;21.03;15.67;;;12.50;99.90;;;;;;4995772;28;20416;-68
2023/02/21 13:34:06;;;;;;;22.23;16.00;;;12.50;99.90;;;;;;4996440;28;20490;-68
2023/02/21 13:36:38;;;;;;;23.27;17.70;;;12.50;99.90;;;;;;4995890;28;20961;-68
2023/02/21 13:39:18;;;;;;;25.03;16.13;;;12.50;99.90;;;;;;4996185;28;20425;-68
2023/02/21 13:41:45;;;;;;;23.20;16.17;;;12.50;99.90;;;;;;4996250;28;20454;-68
2023/02/21 13:44:34;;;;;;;23.43;16.47;;;12.50;99.90;;;;;;4996386;28;20531;-68
2023/02/21 13:47:16;;;;;;;25.27;17.27;;;12.60;99.90;;;;;;4996217;28;20399;-68
2023/02/21 13:49:49;;;;;;;26.07;17.40;;;12.60;99.90;;;;;;4995307;28;20425;-68
2023/02/21 13:52:25;;;;;;;23.47;17.53;;;12.50;99.90;;;;;;4995417;28;20465;-68
2023/02/21 13:55:19;;;;;;;25.43;17.80;;;12.50;99.90;;;;;;4996052;28;20882;-68
2023/02/21 13:57:57;;;;;;;29.73;19.10;;;12.50;99.90;;;;;;4995762;28;20403;-68
2023/02/21 14:00:26;;;;;;;24.50;17.73;;;12.70;99.90;;;;;;4995043;28;20442;-68
2023/02/21 14:03:08;;;;;;;25.10;18.30;;;12.60;99.90;;;;;;4995742;28;20413;-68
2023/02/21 14:05:43;;;;;;;23.53;15.63;;;12.60;99.90;;;;;;4995045;28;20509;-68
2023/02/21 14:08:41;;;;;;;25.93;16.70;;;12.60;99.90;;;;;;4995607;28;20416;-68
2023/02/21 14:11:09;;;;;;;24.23;17.27;;;12.60;99.90;;;;;;4995438;28;20513;-68
2023/02/21 14:13:37;;;;;;;27.80;18.30;;;12.50;99.90;;;;;;4994994;28;20412;-68
2023/02/21 14:16:12;;;;;;;25.00;17.60;;;12.60;99.90;;;;;;4995596;28;20422;-68
2023/02/21 14:18:37;;;;;;;20.67;15.90;;;12.60;99.90;;;;;;4994852;28;20440;-68
2023/02/21 14:21:08;;;;;;;26.57;18.20;;;12.60;99.90;;;;;;4978035;28;20429;-68
2023/02/21 14:24:02;;;;;;;22.80;17.80;;;12.60;99.90;;;;;;4994656;28;20243;-68
2023/02/21 14:26:50;;;;;;;24.00;16.90;;;12.60;99.90;;;;;;4994702;28;20951;-68
2023/02/21 14:29:34;;;;;;;25.30;17.87;;;12.60;99.90;;;;;;4994960;28;20879;-68
2023/02/21 14:32:02;;;;;;;27.30;18.30;;;12.60;99.90;;;;;;4995725;28;20410;-68
2023/02/21 14:34:46;;;;;;;28.53;17.53;;;12.60;99.90;;;;;;4994592;28;20880;-68
2023/02/21 14:37:20;;;;;;;27.10;17.97;;;12.60;99.90;;;;;;4994884;28;20938;-68
2023/02/21 14:40:13;;;;;;;26.23;17.40;;;12.60;99.90;;;;;;4977022;28;20425;-68
2023/02/21 14:43:03;;;;;;;28.57;18.67;;;12.60;99.90;;;;;;4994547;28;20423;-68
2023/02/21 14:45:55;;;;;;;30.97;19.30;;;12.60;99.90;;;;;;4994207;28;20476;-68
2023/02/21 14:48:51;;;;;;;27.30;17.70;;;12.60;99.90;;;;;;4994693;28;20901;-68
2023/02/21 14:51:51;;;;;;;26.10;17.20;;;12.70;99.90;;;;;;4994796;28;20412;-68
2023/02/21 14:54:36;;;;;;;26.60;18.70;;;12.60;99.90;;;;;;4994785;28;20464;-68
2023/02/21 14:57:13;;;;;;;26.47;19.03;;;12.60;99.90;;;;;;4994876;28;20491;-68
2023/02/21 15:00:01;;;;;;;28.30;18.50;;;12.60;99.90;;;;;;4994204;28;20400;-68
2023/02/21 15:02:29;;;;;;;27.33;19.33;;;12.60;99.90;;;;;;4993875;28;20439;-68
2023/02/21 15:05:24;;;;;;;31.47;19.87;;;12.60;99.90;;;;;;4993927;28;20461;-68
2023/02/21 15:08:20;;;;;;;29.90;19.73;;;12.60;99.90;;;;;;4994395;28;20931;-68
2023/02/21 15:10:47;;;;;;;29.10;19.87;;;12.60;99.90;;;;;;4980215;28;20434;-68
2023/02/21 15:13:31;;;;;;;26.97;19.13;;;12.60;99.90;;;;;;4994483;28;20523;-68